메인 페이지
METAR-TAF:

METAR-TAF

공항 :

바마코, 말리

위도: 12-32N, 경도: 007-57W, 고도: 380m

현재 날씨관측

예보는 26분 전, 09:00시(UTC)에 발표되었습니다.
북북동12kt
온도 21°C
습도 26%
기압 1017 hPa
시정 10km 이상
1500m 미만 상공 구름 및 적란운 없음

METAR: GABS 180900Z 03012KT CAVOK 21/01 Q1017 NOSIG

시각: 09:26 (09:26 UTC)

예보

예보는 4 시간 26분 전, 05:00시(UTC)에 발표되었습니다.
예보 대상 시간: 18일 06시부터 19일 12시까지 (UTC)
10kt
시정: 6000m
확률 40% :
일시적
18일 12시부터 18일 18시까지 (UTC)
시정: 4500m
연무

TAF: GABS 180500Z 1806/1912 01010KT 6000 NSC PROB40 TEMPO 1812/1818 4500 HZ

4,000개 이상의 공항 관측 자료 및 예보 (METAR 및 TAF 보고).

지도상에서 검색 가능한 기상관측소가 노란 점과 빨간 점으로 표시되어 있습니다.

기상관측소 명을 보려면 표시 위로 마우스를 이동하세요.

날씨 관측과 예보를 보려면 클릭하세요.

지도 변경 : 확대하려면 엑스 표시가 있는 녹색 버튼, 축소하려면 빼기 표시가 있는 녹색 버튼, 다음 페이지의 지도를 보려면 녹색 화살표를 클릭하세요.


METAR-TAF: